Gerald R. Ford International Airport Grand Rapids US
ICAO: KGRR
IATA: GRR
Category: Medium
Scheduled Services: Yes

Elevation: 794 ft
TransAlt. 18000 ft.

Airport Communications:
GRAND RAPIDS APP/DEP:124.6
ATIS:127.1
CLNC DEL:119.3
CTAF:135.65
GND:121.8
LANSING RDO:115.95
GRAND RAPIDS TWR:135.65
UNICOM:122.95

KGRR Zoom In..

Runways:

(A) RW 08L length 5000 ft width 100 ft
---- / hdg 85

(B) RW 08R length 10000 ft width 150 ft
ILS 108.30 / hdg 85

(C) RW 17 length 8501 ft width 150 ft
---- / hdg 175

(D) RW 26L length 10000 ft width 150 ft
ILS 109.70 / hdg 265

(E) RW 26R length 5000 ft width 100 ft
---- / hdg 265

(F) RW 35 length 8501 ft width 150 ft
ILS 111.90 / hdg 355

Location; KGRR
Day. 16 / Time. 17.53 Zulu
* Altimeter: 29.88
* Temperature: 33° c. 91.4°f.
* Wind from: 250° Speed 11 kn with Gusts up to 17 kn.
Dewpoint: 22° c.
Visibility: 10 Statute Miles.
Clouds: Scattered 4000 ft.
Clouds: Broken 25000 ft.
Conditions: Cumulonimbus.

KGRR 161753Z 25011G17KT 10SM SCT040 BKN250 33/22 A2988 RMK AO2 LTG DSNT N SLP112 CB DSNT N MOV E T03280217 10328 20233 58012


Wind From 250°
Speed 11 kn.

 
 
jpsmedia.com for Web Design worldairports.se 2018   terms of use